createdAt,value
2022-12-03T00:01:20.296Z,12.60
2022-12-03T00:03:48.020Z,11.60
2022-12-03T00:06:15.767Z,12.50
2022-12-03T00:08:43.357Z,13.20
2022-12-03T00:11:10.940Z,14.00
2022-12-03T00:13:38.534Z,13.50
2022-12-03T00:16:06.295Z,14.60
2022-12-03T00:18:33.999Z,13.20
2022-12-03T00:21:01.559Z,13.00
2022-12-03T00:23:29.179Z,13.10
2022-12-03T00:25:56.848Z,12.50
2022-12-03T00:28:24.434Z,12.80
2022-12-03T00:30:52.159Z,13.50
2022-12-03T00:33:20.532Z,13.90
2022-12-03T00:35:48.141Z,13.10
2022-12-03T00:38:15.907Z,13.90
2022-12-03T00:40:43.505Z,11.00
2022-12-03T00:43:11.095Z,13.10
2022-12-03T00:45:38.685Z,13.60
2022-12-03T00:48:06.365Z,15.10
2022-12-03T00:50:33.992Z,13.30
2022-12-03T00:53:01.621Z,13.70
2022-12-03T00:55:29.178Z,13.40
2022-12-03T00:57:56.795Z,12.80
2022-12-03T01:00:24.458Z,14.00
2022-12-03T01:02:53.111Z,13.20
2022-12-03T01:05:21.061Z,12.80
2022-12-03T01:07:48.742Z,12.60
2022-12-03T01:10:16.558Z,11.70
2022-12-03T01:12:44.206Z,12.90
2022-12-03T01:15:12.010Z,14.50
2022-12-03T01:17:39.669Z,13.60
2022-12-03T01:20:08.937Z,13.70
2022-12-03T01:22:36.594Z,13.30
2022-12-03T01:25:04.510Z,12.20
2022-12-03T01:27:32.108Z,12.70
2022-12-03T01:29:59.701Z,13.20
2022-12-03T01:32:27.349Z,12.90
2022-12-03T01:34:56.114Z,14.30
2022-12-03T01:37:26.384Z,14.70
2022-12-03T01:39:54.034Z,13.10
2022-12-03T01:42:25.657Z,14.10
2022-12-03T01:47:28.720Z,12.90
2022-12-03T01:50:15.501Z,12.30
2022-12-03T01:52:43.326Z,10.90
2022-12-03T01:55:17.041Z,10.80
2022-12-03T01:57:51.381Z,13.30
2022-12-03T02:00:21.959Z,13.50
2022-12-03T02:02:53.244Z,12.10
2022-12-03T02:05:24.175Z,13.40
2022-12-03T02:07:52.163Z,13.30
2022-12-03T02:10:25.295Z,14.00
2022-12-03T02:13:08.107Z,13.90
2022-12-03T02:15:40.400Z,12.20
2022-12-03T02:18:09.454Z,13.50
2022-12-03T02:21:26.730Z,13.80
2022-12-03T02:24:12.907Z,12.20
2022-12-03T02:26:40.686Z,12.90
2022-12-03T02:29:08.353Z,11.30
2022-12-03T02:31:36.054Z,13.70
2022-12-03T02:34:07.596Z,12.80
2022-12-03T02:36:36.627Z,12.50
2022-12-03T02:39:05.160Z,12.60
2022-12-03T02:41:32.926Z,11.20
2022-12-03T02:44:00.901Z,10.40
2022-12-03T02:46:29.361Z,13.20
2022-12-03T02:48:58.398Z,12.00
2022-12-03T02:51:26.627Z,12.10
2022-12-03T02:53:56.193Z,11.80
2022-12-03T02:56:28.568Z,12.20
2022-12-03T02:59:00.524Z,12.90
2022-12-03T03:01:28.249Z,12.20
2022-12-03T03:03:56.456Z,13.40
2022-12-03T03:06:24.399Z,12.10
2022-12-03T03:08:52.439Z,13.90
2022-12-03T03:11:20.116Z,13.70
2022-12-03T03:13:47.745Z,13.90
2022-12-03T03:16:15.477Z,12.80
2022-12-03T03:18:43.148Z,13.50
2022-12-03T03:21:11.769Z,14.20
2022-12-03T03:23:39.400Z,14.60
2022-12-03T03:26:13.319Z,14.30
2022-12-03T03:28:46.849Z,14.10
2022-12-03T03:31:17.901Z,13.30
2022-12-03T03:33:48.920Z,13.60
2022-12-03T03:36:17.001Z,14.70
2022-12-03T03:38:44.958Z,14.50
2022-12-03T03:41:13.558Z,15.20
2022-12-03T03:43:43.173Z,15.70
2022-12-03T03:46:11.928Z,14.90
2022-12-03T03:48:41.445Z,14.50
2022-12-03T03:51:10.272Z,15.70
2022-12-03T03:53:41.283Z,13.30
2022-12-03T03:56:09.911Z,15.20
2022-12-03T03:58:37.884Z,13.90
2022-12-03T04:01:05.789Z,15.20
2022-12-03T04:03:34.707Z,14.10
2022-12-03T04:06:02.472Z,15.50
2022-12-03T04:08:30.456Z,15.30
2022-12-03T04:10:58.084Z,15.90
2022-12-03T04:13:25.662Z,14.10
2022-12-03T04:15:53.273Z,12.80
2022-12-03T04:18:20.880Z,14.90
2022-12-03T04:20:48.467Z,15.50
2022-12-03T04:23:16.136Z,13.40
2022-12-03T04:25:43.720Z,15.00
2022-12-03T04:28:11.332Z,15.20
2022-12-03T04:30:39.202Z,14.50
2022-12-03T04:33:06.844Z,15.00
2022-12-03T04:35:34.546Z,14.80
2022-12-03T04:38:02.240Z,13.70
2022-12-03T04:40:29.842Z,15.90
2022-12-03T04:42:57.489Z,12.90
2022-12-03T04:45:25.133Z,14.00
2022-12-03T04:47:52.689Z,13.20
2022-12-03T04:50:20.285Z,14.50
2022-12-03T04:52:47.858Z,14.10
2022-12-03T04:55:15.531Z,13.80
2022-12-03T04:57:43.177Z,11.80
2022-12-03T05:00:11.602Z,14.80
2022-12-03T05:02:39.285Z,14.30
2022-12-03T05:05:07.343Z,13.60
2022-12-03T05:07:35.024Z,15.60
2022-12-03T05:10:03.865Z,14.00
2022-12-03T05:12:31.732Z,13.70
2022-12-03T05:15:00.547Z,16.30
2022-12-03T05:17:28.340Z,15.30
2022-12-03T05:19:55.931Z,15.60
2022-12-03T05:22:23.484Z,15.10
2022-12-03T05:24:51.495Z,13.70
2022-12-03T05:27:23.744Z,11.90
2022-12-03T05:29:52.573Z,11.30
2022-12-03T05:32:20.305Z,14.40
2022-12-03T05:34:47.987Z,14.70
2022-12-03T05:37:15.738Z,15.10
2022-12-03T05:39:43.401Z,15.20
2022-12-03T05:42:11.052Z,13.50
2022-12-03T05:44:38.659Z,15.80
2022-12-03T05:47:06.342Z,12.00
2022-12-03T05:49:33.943Z,14.40
2022-12-03T05:52:01.596Z,14.50
2022-12-03T05:54:29.205Z,14.20
2022-12-03T05:56:56.814Z,14.60
2022-12-03T05:59:24.396Z,14.10
2022-12-03T06:01:51.981Z,14.80
2022-12-03T06:04:19.587Z,14.00
2022-12-03T06:06:47.212Z,13.90
2022-12-03T06:09:14.806Z,14.40
2022-12-03T06:11:42.392Z,14.30
2022-12-03T06:14:10.004Z,14.80
2022-12-03T06:16:37.737Z,15.60
2022-12-03T06:19:05.422Z,15.50
2022-12-03T06:21:32.999Z,16.00
2022-12-03T06:24:00.748Z,14.40
2022-12-03T06:26:28.541Z,16.60
2022-12-03T06:28:56.251Z,13.00
2022-12-03T06:31:23.840Z,14.90
2022-12-03T06:33:51.472Z,13.90
2022-12-03T06:36:22.954Z,12.40
2022-12-03T06:38:50.984Z,14.50
2022-12-03T06:41:18.608Z,16.40
2022-12-03T06:43:46.672Z,17.70
2022-12-03T06:46:14.376Z,18.40
2022-12-03T06:48:42.295Z,17.90
2022-12-03T06:51:09.970Z,19.20
2022-12-03T06:53:37.650Z,14.30
2022-12-03T06:56:05.655Z,14.80
2022-12-03T06:58:33.258Z,15.00
2022-12-03T07:01:00.971Z,16.50
2022-12-03T07:03:28.603Z,17.50
2022-12-03T07:05:56.153Z,17.40
2022-12-03T07:08:23.767Z,15.90
2022-12-03T07:10:51.365Z,14.40
2022-12-03T07:13:18.961Z,12.50
2022-12-03T07:15:46.585Z,16.10
2022-12-03T07:18:14.403Z,16.30
2022-12-03T07:20:42.019Z,15.20
2022-12-03T07:23:09.621Z,17.10
2022-12-03T07:25:37.459Z,16.30
2022-12-03T07:28:05.115Z,17.70
2022-12-03T07:30:32.689Z,17.60
2022-12-03T07:33:00.304Z,15.10
2022-12-03T07:35:27.999Z,15.90
2022-12-03T07:37:55.616Z,16.30
2022-12-03T07:40:23.208Z,17.10
2022-12-03T07:42:50.782Z,15.60
2022-12-03T07:45:18.505Z,16.40
2022-12-03T07:47:46.138Z,17.10
2022-12-03T07:50:13.817Z,16.70
2022-12-03T07:52:41.405Z,17.10
2022-12-03T07:55:10.644Z,17.40
2022-12-03T07:57:38.335Z,16.00
2022-12-03T08:00:07.585Z,18.50
2022-12-03T08:02:35.206Z,17.10
2022-12-03T08:05:03.049Z,16.30
2022-12-03T08:07:30.670Z,16.20
2022-12-03T08:09:58.357Z,17.00
2022-12-03T08:12:29.049Z,15.00
2022-12-03T08:14:56.872Z,15.50
2022-12-03T08:17:25.123Z,13.60
2022-12-03T08:19:53.359Z,16.20
2022-12-03T08:22:21.044Z,16.50
2022-12-03T08:24:48.679Z,16.00
2022-12-03T08:27:19.882Z,14.80
2022-12-03T08:29:47.478Z,15.30
2022-12-03T08:32:15.094Z,14.80
2022-12-03T08:34:44.398Z,15.50
2022-12-03T08:37:19.134Z,13.50
2022-12-03T08:39:49.254Z,15.80
2022-12-03T08:42:27.039Z,15.20
2022-12-03T08:44:54.768Z,14.60
2022-12-03T08:47:24.674Z,15.60
2022-12-03T08:49:57.331Z,17.00
2022-12-03T08:52:32.404Z,15.60
2022-12-03T08:55:10.627Z,14.70
2022-12-03T08:57:41.211Z,15.30
2022-12-03T09:00:22.782Z,12.50
2022-12-03T09:03:00.817Z,17.40
2022-12-03T09:05:31.680Z,15.80
2022-12-03T09:07:59.368Z,16.30
2022-12-03T09:10:27.024Z,16.90
2022-12-03T09:12:54.624Z,15.90
2022-12-03T09:15:22.185Z,14.20
2022-12-03T09:17:49.818Z,16.30
2022-12-03T09:20:17.403Z,15.30
2022-12-03T09:22:45.010Z,15.90
2022-12-03T09:25:13.209Z,15.00
2022-12-03T09:27:40.795Z,13.80
2022-12-03T09:30:08.687Z,15.30
2022-12-03T09:32:36.326Z,15.50
2022-12-03T09:35:04.980Z,15.60
2022-12-03T09:37:32.569Z,16.00
2022-12-03T09:40:00.223Z,17.30
2022-12-03T09:42:28.127Z,16.40
2022-12-03T09:44:56.071Z,16.60
2022-12-03T09:47:23.965Z,17.40
2022-12-03T09:49:52.829Z,17.00
2022-12-03T09:52:28.938Z,15.50
2022-12-03T09:54:57.361Z,15.50
2022-12-03T09:57:25.297Z,15.20
2022-12-03T09:59:53.141Z,15.50
2022-12-03T10:02:30.405Z,14.10
2022-12-03T10:04:58.315Z,13.80
2022-12-03T10:07:26.436Z,14.60
2022-12-03T10:09:54.543Z,14.30
2022-12-03T10:12:24.285Z,15.50
2022-12-03T10:14:53.295Z,12.70
2022-12-03T10:17:21.177Z,15.00
2022-12-03T10:19:48.967Z,13.00
2022-12-03T10:22:16.583Z,13.90
2022-12-03T10:24:44.378Z,14.40
2022-12-03T10:27:30.504Z,13.70
2022-12-03T10:30:00.423Z,15.20
2022-12-03T10:32:44.503Z,13.90
2022-12-03T10:35:18.183Z,15.20
2022-12-03T10:38:04.471Z,13.80
2022-12-03T10:43:24.356Z,12.60
2022-12-03T10:46:12.420Z,13.40
2022-12-03T10:48:40.116Z,14.30
2022-12-03T10:51:19.234Z,14.10
2022-12-03T10:53:48.427Z,14.30
2022-12-03T10:56:24.935Z,13.90
2022-12-03T10:58:52.749Z,14.40
2022-12-03T11:01:23.400Z,13.50
2022-12-03T11:03:52.441Z,13.40
2022-12-03T11:06:22.630Z,13.40
2022-12-03T11:08:57.141Z,13.60
2022-12-03T11:11:29.788Z,15.20
2022-12-03T11:13:59.514Z,13.90
2022-12-03T11:16:39.020Z,14.60
2022-12-03T11:19:12.449Z,14.60
2022-12-03T11:22:04.925Z,13.90
2022-12-03T11:24:34.375Z,13.70
2022-12-03T11:27:01.975Z,13.90
2022-12-03T11:29:51.572Z,14.20
2022-12-03T11:32:37.915Z,13.50
2022-12-03T11:35:13.880Z,12.20
2022-12-03T11:37:41.599Z,13.50
2022-12-03T11:40:18.240Z,14.10
2022-12-03T11:42:48.050Z,12.50
2022-12-03T11:45:17.172Z,12.40
2022-12-03T11:48:09.988Z,14.10
2022-12-03T11:50:42.261Z,13.50
2022-12-03T11:53:24.713Z,12.20
2022-12-03T11:56:04.388Z,13.80
2022-12-03T11:58:33.699Z,12.40
2022-12-03T12:01:04.437Z,13.10
2022-12-03T12:03:34.408Z,13.60
2022-12-03T12:06:33.074Z,12.40
2022-12-03T12:09:00.699Z,13.50
2022-12-03T12:11:29.903Z,14.50
2022-12-03T12:13:59.835Z,13.70
2022-12-03T12:16:45.506Z,14.70
2022-12-03T12:19:34.340Z,13.40
2022-12-03T12:22:20.893Z,13.60
2022-12-03T12:24:51.502Z,13.50
2022-12-03T12:27:40.399Z,13.50
2022-12-03T12:30:14.054Z,12.40
2022-12-03T12:33:01.544Z,13.70
2022-12-03T12:35:30.803Z,13.30
2022-12-03T12:38:07.410Z,13.80
2022-12-03T12:40:36.629Z,14.30
2022-12-03T12:43:20.363Z,12.10
2022-12-03T12:45:53.910Z,12.60
2022-12-03T12:48:36.980Z,13.10
2022-12-03T12:51:16.849Z,13.20
2022-12-03T12:53:44.766Z,12.80
2022-12-03T12:56:30.101Z,11.90
2022-12-03T12:59:33.288Z,13.80
2022-12-03T13:02:04.592Z,12.70
2022-12-03T13:04:36.297Z,12.70
2022-12-03T13:07:04.855Z,12.00
2022-12-03T13:09:32.867Z,12.90
2022-12-03T13:12:02.197Z,13.00
2022-12-03T13:14:37.565Z,12.10
2022-12-03T13:17:16.195Z,12.20
2022-12-03T13:19:49.342Z,12.50
2022-12-03T13:22:22.880Z,11.90
2022-12-03T13:24:51.597Z,13.10
2022-12-03T13:27:19.130Z,12.30
2022-12-03T13:29:51.163Z,11.60
2022-12-03T13:32:21.560Z,12.40
2022-12-03T13:34:49.684Z,11.90
2022-12-03T13:37:26.775Z,11.70
2022-12-03T13:39:58.752Z,10.20
2022-12-03T13:42:32.004Z,12.00
2022-12-03T13:45:01.850Z,12.00
2022-12-03T13:47:29.425Z,11.10
2022-12-03T13:50:00.598Z,11.50
2022-12-03T13:52:31.916Z,11.70
2022-12-03T13:55:03.470Z,12.40
2022-12-03T13:57:31.063Z,10.40
2022-12-03T13:59:58.604Z,11.10
2022-12-03T14:02:26.216Z,10.70
2022-12-03T14:04:58.537Z,10.20
2022-12-03T14:07:28.003Z,11.40
2022-12-03T14:09:56.080Z,11.90
2022-12-03T14:12:24.079Z,13.10
2022-12-03T14:14:52.291Z,11.90
2022-12-03T14:17:20.253Z,10.90
2022-12-03T14:19:47.835Z,11.50
2022-12-03T14:22:15.491Z,11.00
2022-12-03T14:24:43.127Z,12.20
2022-12-03T14:27:10.743Z,12.40
2022-12-03T14:29:38.300Z,10.70
2022-12-03T14:32:06.083Z,11.70
2022-12-03T14:34:33.704Z,12.00
2022-12-03T14:37:01.246Z,13.00
2022-12-03T14:39:28.863Z,12.70
2022-12-03T14:41:56.424Z,11.00
2022-12-03T14:44:24.130Z,13.20
2022-12-03T14:46:56.831Z,12.80
2022-12-03T14:49:25.200Z,13.10
2022-12-03T14:51:52.832Z,12.00
2022-12-03T14:54:20.481Z,13.20
2022-12-03T14:56:48.051Z,12.80
2022-12-03T14:59:16.303Z,11.20
2022-12-03T15:01:43.948Z,12.60
2022-12-03T15:04:11.596Z,12.80
2022-12-03T15:06:39.291Z,12.00
2022-12-03T15:09:06.974Z,12.10
2022-12-03T15:11:35.207Z,11.30
2022-12-03T15:14:02.864Z,11.00
2022-12-03T15:16:30.949Z,12.60
2022-12-03T15:18:58.568Z,11.70
2022-12-03T15:21:26.243Z,12.40
2022-12-03T15:23:54.288Z,11.30
2022-12-03T15:26:21.870Z,12.70
2022-12-03T15:28:49.562Z,12.80
2022-12-03T15:31:17.301Z,13.00
2022-12-03T15:33:44.953Z,13.10
2022-12-03T15:36:12.722Z,12.20
2022-12-03T15:38:40.458Z,12.60
2022-12-03T15:41:08.098Z,12.10
2022-12-03T15:43:38.942Z,11.30
2022-12-03T15:46:06.630Z,11.70
2022-12-03T15:48:34.272Z,11.30
2022-12-03T15:51:01.868Z,12.50
2022-12-03T15:53:29.483Z,12.10
2022-12-03T15:55:57.158Z,11.80
2022-12-03T15:58:24.758Z,11.40
2022-12-03T16:00:52.385Z,12.70
2022-12-03T16:03:20.034Z,12.40
2022-12-03T16:05:47.748Z,12.30
2022-12-03T16:08:15.459Z,11.60
2022-12-03T16:10:43.222Z,11.60
2022-12-03T16:13:10.852Z,12.20
2022-12-03T16:15:38.680Z,12.50
2022-12-03T16:18:06.319Z,11.60
2022-12-03T16:20:33.925Z,12.40
2022-12-03T16:23:01.622Z,11.80
2022-12-03T16:25:29.328Z,12.70
2022-12-03T16:27:56.902Z,13.30
2022-12-03T16:30:24.618Z,11.10
2022-12-03T16:32:52.208Z,12.10
2022-12-03T16:35:19.742Z,13.40
2022-12-03T16:37:47.491Z,12.10
2022-12-03T16:40:15.235Z,12.50
2022-12-03T16:42:42.879Z,13.20
2022-12-03T16:45:10.864Z,14.50
2022-12-03T16:47:38.426Z,14.60
2022-12-03T16:50:07.848Z,14.90
2022-12-03T16:52:35.968Z,14.30
2022-12-03T16:55:03.804Z,13.40
2022-12-03T16:57:38.320Z,11.50
2022-12-03T17:00:07.366Z,15.10
2022-12-03T17:02:34.978Z,15.00
2022-12-03T17:05:02.923Z,14.50
2022-12-03T17:07:30.625Z,16.40
2022-12-03T17:09:58.239Z,17.80
2022-12-03T17:12:37.531Z,18.80
2022-12-03T17:15:13.411Z,20.10
2022-12-03T17:17:41.036Z,19.20
2022-12-03T17:20:08.864Z,22.10
2022-12-03T17:22:36.445Z,24.70
2022-12-03T17:25:04.282Z,26.40
2022-12-03T17:27:31.869Z,26.70
2022-12-03T17:29:59.522Z,27.70
2022-12-03T17:32:30.939Z,27.30
2022-12-03T17:34:58.564Z,26.80
2022-12-03T17:37:26.187Z,24.40
2022-12-03T17:39:54.237Z,26.40
2022-12-03T17:42:22.016Z,23.40
2022-12-03T17:44:49.666Z,22.80
2022-12-03T17:47:17.303Z,21.10
2022-12-03T17:49:44.975Z,19.60
2022-12-03T17:52:12.640Z,19.20
2022-12-03T17:55:08.572Z,18.00
2022-12-03T17:57:27.844Z,19.70
2022-12-03T17:59:55.844Z,21.30
2022-12-03T18:02:23.695Z,24.30
2022-12-03T18:04:51.398Z,24.20
2022-12-03T18:07:19.008Z,21.20
2022-12-03T18:09:46.748Z,22.50
2022-12-03T18:12:14.337Z,23.40
2022-12-03T18:14:42.000Z,23.70
2022-12-03T18:17:09.645Z,21.50
2022-12-03T18:19:37.221Z,21.10
2022-12-03T18:22:04.850Z,18.80
2022-12-03T18:24:33.599Z,19.60
2022-12-03T18:27:01.214Z,17.60
2022-12-03T18:29:28.804Z,17.60
2022-12-03T18:31:56.454Z,16.50
2022-12-03T18:34:24.099Z,17.60
2022-12-03T18:36:51.723Z,23.50
2022-12-03T18:39:28.713Z,17.80
2022-12-03T18:41:56.319Z,19.90
2022-12-03T18:44:23.944Z,19.10
2022-12-03T18:46:54.254Z,16.80
2022-12-03T18:49:22.388Z,18.60
2022-12-03T18:51:55.994Z,18.80
2022-12-03T18:54:29.114Z,18.30
2022-12-03T18:56:57.951Z,18.20
2022-12-03T18:59:25.575Z,17.20
2022-12-03T19:01:53.214Z,16.60
2022-12-03T19:04:20.953Z,18.70
2022-12-03T19:06:48.559Z,19.50
2022-12-03T19:09:16.556Z,18.90
2022-12-03T19:11:44.523Z,19.10
2022-12-03T19:14:12.208Z,18.10
2022-12-03T19:16:40.668Z,18.50
2022-12-03T19:19:09.615Z,17.80
2022-12-03T19:21:37.320Z,18.60
2022-12-03T19:24:23.689Z,19.00
2022-12-03T19:26:52.202Z,18.60
2022-12-03T19:29:20.878Z,17.50
2022-12-03T19:31:51.928Z,17.80
2022-12-03T19:34:20.155Z,18.50
2022-12-03T19:36:48.033Z,18.00
2022-12-03T19:39:15.626Z,18.70
2022-12-03T19:41:43.198Z,16.50
2022-12-03T19:44:13.561Z,16.00
2022-12-03T19:46:41.755Z,19.50
2022-12-03T19:49:10.072Z,18.40
2022-12-03T19:51:38.418Z,16.60
2022-12-03T19:54:08.248Z,17.70
2022-12-03T19:56:35.832Z,18.80
2022-12-03T19:59:03.902Z,16.10
2022-12-03T20:01:33.449Z,16.40
2022-12-03T20:04:03.267Z,18.00
2022-12-03T20:06:34.729Z,16.90
2022-12-03T20:09:06.597Z,17.30
2022-12-03T20:11:35.402Z,18.00
2022-12-03T20:14:07.292Z,18.10
2022-12-03T20:16:35.787Z,17.70
2022-12-03T20:19:06.013Z,19.60
2022-12-03T20:21:35.576Z,17.20
2022-12-03T20:24:04.965Z,16.70
2022-12-03T20:26:33.736Z,16.60
2022-12-03T20:29:01.585Z,16.70
2022-12-03T20:31:30.913Z,17.30
2022-12-03T20:34:01.660Z,17.70
2022-12-03T20:36:31.312Z,17.80
2022-12-03T20:39:02.555Z,17.50
2022-12-03T20:41:30.595Z,12.50
2022-12-03T20:43:58.428Z,17.20
2022-12-03T20:46:28.842Z,15.60
2022-12-03T20:48:57.425Z,17.60
2022-12-03T20:51:28.801Z,14.50
2022-12-03T20:53:58.186Z,18.50
2022-12-03T20:56:29.153Z,16.80
2022-12-03T20:58:59.127Z,17.90
2022-12-03T21:01:27.823Z,18.80
2022-12-03T21:03:56.766Z,18.10
2022-12-03T21:06:26.603Z,18.10
2022-12-03T21:08:55.013Z,21.30
2022-12-03T21:11:25.164Z,19.30
2022-12-03T21:13:54.312Z,15.90
2022-12-03T21:16:52.099Z,18.10
2022-12-03T21:19:13.088Z,19.10
2022-12-03T21:21:40.653Z,17.00
2022-12-03T21:24:08.846Z,20.90
2022-12-03T21:26:36.494Z,21.20
2022-12-03T21:29:04.152Z,19.90
2022-12-03T21:31:31.794Z,19.70
2022-12-03T21:33:59.363Z,18.60
2022-12-03T21:36:26.952Z,19.10
2022-12-03T21:38:55.004Z,18.80
2022-12-03T21:41:22.615Z,18.20
2022-12-03T21:43:51.455Z,19.20
2022-12-03T21:47:10.255Z,19.90
2022-12-03T21:49:06.675Z,18.50
2022-12-03T21:51:34.284Z,19.90
2022-12-03T21:54:01.852Z,20.90
2022-12-03T21:56:29.429Z,19.40
2022-12-03T21:58:57.092Z,20.80
2022-12-03T22:01:25.377Z,19.30
2022-12-03T22:03:53.092Z,19.20
2022-12-03T22:06:21.486Z,19.40
2022-12-03T22:08:49.514Z,17.50
2022-12-03T22:11:20.072Z,20.00
2022-12-03T22:13:48.055Z,20.80
2022-12-03T22:16:18.356Z,21.20
2022-12-03T22:18:46.782Z,17.60
2022-12-03T22:21:17.496Z,17.80
2022-12-03T22:23:45.667Z,20.70
2022-12-03T22:26:16.484Z,20.20
2022-12-03T22:28:49.621Z,19.30
2022-12-03T22:31:19.835Z,18.20
2022-12-03T22:33:47.520Z,20.90
2022-12-03T22:36:20.959Z,20.30
2022-12-03T22:38:50.702Z,19.10
2022-12-03T22:41:19.118Z,20.30
2022-12-03T22:43:47.940Z,18.10
2022-12-03T22:46:16.665Z,19.30
2022-12-03T22:48:46.016Z,20.60
2022-12-03T22:51:19.797Z,17.90
2022-12-03T22:53:47.831Z,18.40
2022-12-03T22:56:15.478Z,19.50
2022-12-03T22:58:43.107Z,19.30
2022-12-03T23:01:21.153Z,18.60
2022-12-03T23:03:49.026Z,17.80
2022-12-03T23:06:17.224Z,18.10
2022-12-03T23:08:45.123Z,18.10
2022-12-03T23:11:13.246Z,19.30
2022-12-03T23:13:41.210Z,19.50
2022-12-03T23:16:14.566Z,15.40
2022-12-03T23:18:42.238Z,18.00
2022-12-03T23:21:14.244Z,18.70
2022-12-03T23:23:41.831Z,17.80
2022-12-03T23:26:12.200Z,18.60
2022-12-03T23:28:42.012Z,18.80
2022-12-03T23:31:19.986Z,15.50
2022-12-03T23:33:47.643Z,18.20
2022-12-03T23:36:16.456Z,16.40
2022-12-03T23:38:44.542Z,17.20
2022-12-03T23:41:15.811Z,18.50
2022-12-03T23:43:43.977Z,16.80
2022-12-03T23:46:17.252Z,16.80
2022-12-03T23:48:45.433Z,16.10
2022-12-03T23:51:19.157Z,17.70
2022-12-03T23:53:46.964Z,16.20
2022-12-03T23:56:21.617Z,17.10
2022-12-03T23:58:49.694Z,16.50
